createdAt,value
2022-09-13T00:02:18.215Z,8.75
2022-09-13T00:07:22.958Z,8.43
2022-09-13T00:12:26.127Z,8.27
2022-09-13T00:17:30.761Z,8.32
2022-09-13T00:22:34.142Z,8.57
2022-09-13T00:27:37.917Z,7.85
2022-09-13T00:32:42.361Z,8.18
2022-09-13T00:37:46.189Z,8.40
2022-09-13T00:42:49.431Z,7.78
2022-09-13T00:47:58.473Z,7.90
2022-09-13T00:53:06.653Z,8.90
2022-09-13T00:58:14.621Z,8.85
2022-09-13T01:03:23.037Z,9.35
2022-09-13T01:08:26.416Z,7.88
2022-09-13T01:13:33.231Z,8.80
2022-09-13T01:18:37.920Z,8.50
2022-09-13T01:23:57.894Z,8.00
2022-09-13T01:29:26.524Z,8.27
2022-09-13T01:34:40.419Z,9.23
2022-09-13T01:39:59.976Z,8.23
2022-09-13T01:45:14.885Z,9.65
2022-09-13T01:50:24.870Z,8.35
2022-09-13T01:55:35.695Z,8.85
2022-09-13T02:00:46.655Z,9.43
2022-09-13T02:05:56.411Z,8.48
2022-09-13T02:11:05.458Z,8.38
2022-09-13T02:16:14.662Z,9.88
2022-09-13T02:21:23.743Z,9.00
2022-09-13T02:26:29.871Z,9.05
2022-09-13T02:31:40.681Z,9.05
2022-09-13T02:36:47.375Z,8.52
2022-09-13T02:41:55.445Z,8.45
2022-09-13T02:47:12.207Z,8.48
2022-09-13T02:52:23.323Z,9.25
2022-09-13T02:57:33.661Z,9.30
2022-09-13T03:02:40.132Z,8.98
2022-09-13T03:07:44.588Z,9.18
2022-09-13T03:13:23.116Z,8.95
2022-09-13T03:18:41.280Z,8.10
2022-09-13T03:23:58.676Z,8.45
2022-09-13T03:29:12.448Z,8.23
2022-09-13T03:34:23.731Z,8.85
2022-09-13T03:39:41.695Z,9.15
2022-09-13T03:44:48.239Z,8.10
2022-09-13T03:49:52.923Z,8.57
2022-09-13T03:54:59.182Z,8.98
2022-09-13T04:00:02.471Z,8.07
2022-09-13T04:05:15.045Z,9.13
2022-09-13T04:10:19.529Z,8.60
2022-09-13T04:15:23.061Z,10.77
2022-09-13T04:20:26.408Z,9.85
2022-09-13T04:25:30.784Z,11.00
2022-09-13T04:30:33.794Z,11.20
2022-09-13T04:35:36.931Z,10.80
2022-09-13T04:40:44.614Z,11.82
2022-09-13T04:45:47.746Z,11.15
2022-09-13T04:50:50.755Z,10.68
2022-09-13T04:55:55.141Z,11.85
2022-09-13T05:01:02.533Z,12.80
2022-09-13T05:06:06.473Z,11.70
2022-09-13T05:11:11.623Z,11.10
2022-09-13T05:16:14.680Z,11.13
2022-09-13T05:21:18.650Z,10.20
2022-09-13T05:26:26.019Z,11.05
2022-09-13T05:31:31.972Z,11.20
2022-09-13T05:36:35.723Z,10.60
2022-09-13T05:41:43.149Z,11.30
2022-09-13T05:46:48.826Z,10.85
2022-09-13T05:51:51.746Z,13.20
2022-09-13T05:56:57.652Z,11.60
2022-09-13T06:02:00.646Z,12.27
2022-09-13T06:07:03.636Z,10.60
2022-09-13T06:12:08.177Z,10.82
2022-09-13T06:17:11.330Z,10.38
2022-09-13T06:22:14.251Z,10.55
2022-09-13T06:27:19.626Z,10.40
2022-09-13T06:32:22.875Z,11.63
2022-09-13T06:37:26.523Z,12.75
2022-09-13T06:42:31.115Z,10.27
2022-09-13T06:47:39.658Z,13.68
2022-09-13T06:52:43.292Z,13.43
2022-09-13T06:57:48.876Z,14.60
2022-09-13T07:02:52.822Z,15.75
2022-09-13T07:07:55.855Z,15.07
2022-09-13T07:13:00.308Z,15.20
2022-09-13T07:18:03.510Z,16.38
2022-09-13T07:23:06.547Z,16.80
2022-09-13T07:28:11.209Z,16.38
2022-09-13T07:33:14.308Z,17.00
2022-09-13T07:38:17.318Z,15.25
2022-09-13T07:43:21.686Z,14.68
2022-09-13T07:48:24.951Z,13.93
2022-09-13T07:53:27.883Z,12.80
2022-09-13T07:58:32.737Z,10.88
2022-09-13T08:03:42.768Z,11.90
2022-09-13T08:08:45.968Z,10.93
2022-09-13T08:13:51.698Z,11.15
2022-09-13T08:18:56.370Z,9.85
2022-09-13T08:24:00.784Z,8.70
2022-09-13T08:29:09.969Z,5.50
2022-09-13T08:34:14.734Z,4.10
2022-09-13T08:39:18.851Z,4.05
2022-09-13T08:44:29.629Z,4.63
2022-09-13T08:49:36.829Z,5.88
2022-09-13T08:54:42.833Z,3.15
2022-09-13T08:59:55.640Z,2.90
2022-09-13T09:05:06.932Z,1.55
2022-09-13T09:10:17.511Z,3.25
2022-09-13T09:15:27.947Z,4.25
2022-09-13T09:20:33.752Z,3.85
2022-09-13T09:25:36.965Z,5.40
2022-09-13T09:30:52.793Z,7.50
2022-09-13T09:36:04.907Z,6.45
2022-09-13T09:41:14.545Z,6.07
2022-09-13T09:46:27.390Z,5.35
2022-09-13T09:51:31.557Z,4.53
2022-09-13T09:56:36.846Z,3.72
2022-09-13T10:01:48.332Z,4.28
2022-09-13T10:06:52.915Z,5.25
2022-09-13T10:11:57.284Z,4.43
2022-09-13T10:17:08.042Z,4.13
2022-09-13T10:22:13.459Z,3.10
2022-09-13T10:27:34.524Z,3.72
2022-09-13T10:32:39.100Z,3.75
2022-09-13T10:37:47.213Z,2.78
2022-09-13T10:42:56.417Z,2.35
2022-09-13T10:48:07.196Z,2.90
2022-09-13T10:53:34.452Z,1.33
2022-09-13T10:58:39.893Z,1.55
2022-09-13T11:04:03.803Z,1.05
2022-09-13T11:09:13.702Z,1.42
2022-09-13T11:14:38.204Z,1.08
2022-09-13T11:20:22.976Z,1.10
2022-09-13T11:25:44.615Z,0.75
2022-09-13T11:31:02.135Z,1.60
2022-09-13T11:36:29.824Z,1.85
2022-09-13T11:41:43.778Z,1.40
2022-09-13T11:46:53.947Z,2.15
2022-09-13T11:52:09.748Z,1.35
2022-09-13T11:57:19.812Z,0.88
2022-09-13T12:02:32.514Z,1.48
2022-09-13T12:07:40.161Z,0.80
2022-09-13T12:12:49.532Z,0.88
2022-09-13T12:17:58.295Z,0.90
2022-09-13T12:23:04.496Z,1.75
2022-09-13T12:28:17.914Z,1.30
2022-09-13T12:33:21.387Z,2.17
2022-09-13T12:38:41.420Z,1.83
2022-09-13T12:44:33.743Z,1.60
2022-09-13T12:49:58.794Z,1.42
2022-09-13T12:55:47.409Z,1.30
2022-09-13T13:01:12.715Z,1.20
2022-09-13T13:06:27.362Z,1.13
2022-09-13T13:11:42.591Z,1.00
2022-09-13T13:16:48.531Z,1.13
2022-09-13T13:21:51.611Z,1.80
2022-09-13T13:26:55.923Z,0.90
2022-09-13T13:32:14.839Z,1.00
2022-09-13T13:37:36.401Z,1.13
2022-09-13T13:42:45.214Z,1.20
2022-09-13T13:48:15.629Z,0.70
2022-09-13T13:53:23.721Z,1.33
2022-09-13T13:58:32.979Z,1.05
2022-09-13T14:04:25.785Z,0.95
2022-09-13T14:09:38.944Z,0.95
2022-09-13T14:15:01.716Z,0.90
2022-09-13T14:20:12.050Z,1.27
2022-09-13T14:25:23.842Z,0.80
2022-09-13T14:30:32.010Z,0.82
2022-09-13T14:35:37.994Z,0.90
2022-09-13T14:40:41.529Z,0.90
2022-09-13T14:45:48.053Z,0.98
2022-09-13T14:50:58.416Z,0.80
2022-09-13T14:56:07.051Z,0.80
2022-09-13T15:01:16.302Z,0.80
2022-09-13T15:06:26.633Z,1.05
2022-09-13T15:11:33.233Z,1.42
2022-09-13T15:16:36.631Z,1.30
2022-09-13T15:21:41.004Z,0.80
2022-09-13T15:26:43.960Z,0.98
2022-09-13T15:31:47.042Z,1.15
2022-09-13T15:37:11.495Z,1.15
2022-09-13T15:42:15.191Z,0.80
2022-09-13T15:47:20.251Z,0.95
2022-09-13T15:52:24.633Z,1.33
2022-09-13T15:57:30.021Z,1.00
2022-09-13T16:02:35.849Z,0.93
2022-09-13T16:07:41.003Z,1.52
2022-09-13T16:12:44.014Z,0.82
2022-09-13T16:17:47.730Z,1.02
2022-09-13T16:22:52.131Z,1.30
2022-09-13T16:27:55.344Z,0.90
2022-09-13T16:32:58.945Z,1.10
2022-09-13T16:38:03.292Z,0.70
2022-09-13T16:43:06.216Z,1.30
2022-09-13T16:48:12.930Z,1.50
2022-09-13T16:53:17.329Z,1.10
2022-09-13T16:58:20.550Z,1.30
2022-09-13T17:03:23.661Z,1.92
2022-09-13T17:08:28.772Z,1.42
2022-09-13T17:13:31.883Z,1.13
2022-09-13T17:18:39.771Z,1.30
2022-09-13T17:23:44.255Z,1.42
2022-09-13T17:28:52.644Z,1.40
2022-09-13T17:33:55.844Z,1.23
2022-09-13T17:39:00.913Z,1.30
2022-09-13T17:44:06.378Z,1.50
2022-09-13T17:49:12.671Z,1.00
2022-09-13T17:54:17.025Z,1.60
2022-09-13T17:59:21.907Z,1.35
2022-09-13T18:04:24.997Z,2.20
2022-09-13T18:09:29.439Z,1.45
2022-09-13T18:14:32.875Z,1.40
2022-09-13T18:19:45.896Z,1.20
2022-09-13T18:24:50.992Z,1.20
2022-09-13T18:29:54.119Z,1.00
2022-09-13T18:34:57.328Z,1.38
2022-09-13T18:40:01.975Z,1.20
2022-09-13T18:45:05.713Z,0.90
2022-09-13T18:50:17.944Z,1.00
2022-09-13T18:55:25.433Z,1.00
2022-09-13T19:00:32.784Z,1.17
2022-09-13T19:05:39.505Z,0.95
2022-09-13T19:10:45.509Z,0.90
2022-09-13T19:15:49.317Z,1.10
2022-09-13T19:20:53.797Z,1.10
2022-09-13T19:26:04.240Z,1.10
2022-09-13T19:31:09.329Z,1.00
2022-09-13T19:36:15.106Z,1.08
2022-09-13T19:41:23.752Z,1.00
2022-09-13T19:46:28.588Z,1.55
2022-09-13T19:51:33.280Z,1.75
2022-09-13T19:56:40.556Z,1.85
2022-09-13T20:01:46.158Z,1.50
2022-09-13T20:06:50.760Z,1.45
2022-09-13T20:12:00.576Z,1.20
2022-09-13T20:17:04.270Z,1.50
2022-09-13T20:22:09.912Z,1.30
2022-09-13T20:27:14.545Z,1.38
2022-09-13T20:32:17.465Z,1.60
2022-09-13T20:37:22.527Z,1.42
2022-09-13T20:42:27.077Z,1.50
2022-09-13T20:47:30.061Z,1.80
2022-09-13T20:52:33.411Z,1.77
2022-09-13T20:57:41.241Z,1.80
2022-09-13T21:02:44.596Z,1.45
2022-09-13T21:08:05.031Z,1.67
2022-09-13T21:13:11.177Z,2.47
2022-09-13T21:18:14.120Z,1.48
2022-09-13T21:23:17.227Z,1.30
2022-09-13T21:28:21.609Z,1.20
2022-09-13T21:33:24.781Z,1.45
2022-09-13T21:38:29.463Z,1.40
2022-09-13T21:43:35.144Z,1.38
2022-09-13T21:48:38.039Z,1.60
2022-09-13T21:53:41.022Z,1.20
2022-09-13T21:58:49.705Z,1.45
2022-09-13T22:03:54.023Z,1.40
2022-09-13T22:08:59.499Z,1.52
2022-09-13T22:14:03.996Z,1.42
2022-09-13T22:19:11.027Z,1.23
2022-09-13T22:24:16.518Z,1.45
2022-09-13T22:29:22.153Z,1.45
2022-09-13T22:34:26.627Z,1.33
2022-09-13T22:39:29.647Z,1.33
2022-09-13T22:44:34.445Z,1.17
2022-09-13T22:49:39.623Z,1.10
2022-09-13T22:54:43.504Z,1.23
2022-09-13T22:59:47.938Z,1.52
2022-09-13T23:04:51.062Z,1.42
2022-09-13T23:09:54.090Z,1.60
2022-09-13T23:14:58.917Z,1.23
2022-09-13T23:20:05.934Z,1.00
2022-09-13T23:25:15.804Z,1.60
2022-09-13T23:30:23.733Z,1.17
2022-09-13T23:35:33.442Z,1.20
2022-09-13T23:40:37.070Z,1.73
2022-09-13T23:45:45.824Z,1.17
2022-09-13T23:50:49.014Z,1.45
2022-09-13T23:55:52.078Z,1.40
